createdAt,value
2023-03-13T00:01:25.423Z,10.40
2023-03-13T00:03:57.351Z,10.40
2023-03-13T00:06:39.297Z,10.40
2023-03-13T00:09:11.163Z,10.50
2023-03-13T00:11:43.339Z,10.50
2023-03-13T00:14:13.891Z,10.50
2023-03-13T00:16:58.299Z,10.50
2023-03-13T00:19:31.628Z,10.50
2023-03-13T00:22:06.700Z,10.50
2023-03-13T00:24:48.998Z,10.60
2023-03-13T00:27:23.891Z,10.50
2023-03-13T00:30:04.902Z,10.50
2023-03-13T00:32:37.659Z,10.50
2023-03-13T00:35:17.255Z,10.50
2023-03-13T00:38:08.223Z,10.40
2023-03-13T00:40:48.063Z,10.50
2023-03-13T00:43:18.127Z,10.50
2023-03-13T00:46:09.885Z,10.50
2023-03-13T00:48:40.701Z,10.50
2023-03-13T00:51:14.902Z,10.60
2023-03-13T00:54:04.405Z,10.60
2023-03-13T00:56:44.994Z,10.50
2023-03-13T00:59:15.525Z,10.50
2023-03-13T01:01:46.199Z,10.60
2023-03-13T01:04:22.174Z,10.50
2023-03-13T01:07:08.556Z,10.50
2023-03-13T01:09:55.407Z,10.60
2023-03-13T01:12:26.100Z,10.60
2023-03-13T01:15:00.862Z,10.50
2023-03-13T01:17:34.319Z,10.60
2023-03-13T01:20:10.176Z,10.50
2023-03-13T01:22:48.166Z,10.60
2023-03-13T01:25:40.885Z,10.60
2023-03-13T01:28:16.970Z,10.50
2023-03-13T01:30:53.596Z,10.60
2023-03-13T01:33:28.055Z,10.50
2023-03-13T01:36:08.645Z,10.50
2023-03-13T01:38:39.675Z,10.50
2023-03-13T01:41:18.033Z,10.50
2023-03-13T01:43:49.133Z,10.50
2023-03-13T01:46:21.740Z,10.50
2023-03-13T01:49:16.524Z,10.50
2023-03-13T01:52:02.262Z,10.40
2023-03-13T01:54:44.631Z,10.40
2023-03-13T01:57:37.796Z,10.40
2023-03-13T02:00:14.140Z,10.50
2023-03-13T02:02:52.264Z,10.50
2023-03-13T02:05:26.691Z,10.50
2023-03-13T02:08:04.780Z,10.40
2023-03-13T02:10:40.883Z,10.40
2023-03-13T02:13:16.321Z,10.40
2023-03-13T02:15:54.639Z,10.40
2023-03-13T02:18:27.492Z,10.30
2023-03-13T02:21:11.541Z,10.40
2023-03-13T02:23:59.456Z,10.40
2023-03-13T02:26:36.789Z,10.40
2023-03-13T02:29:25.534Z,10.30
2023-03-13T02:32:00.244Z,10.30
2023-03-13T02:34:43.373Z,10.30
2023-03-13T02:37:17.811Z,10.30
2023-03-13T02:39:57.018Z,10.30
2023-03-13T02:42:34.203Z,10.30
2023-03-13T02:45:06.079Z,10.40
2023-03-13T02:47:46.793Z,10.30
2023-03-13T02:50:18.032Z,10.40
2023-03-13T02:52:54.034Z,10.40
2023-03-13T02:55:48.248Z,10.30
2023-03-13T02:58:31.763Z,10.30
2023-03-13T03:01:11.288Z,10.30
2023-03-13T03:03:44.232Z,10.30
2023-03-13T03:06:15.366Z,10.30
2023-03-13T03:08:47.521Z,10.30
2023-03-13T03:11:18.084Z,10.30
2023-03-13T03:14:02.386Z,10.30
2023-03-13T03:16:46.084Z,10.20
2023-03-13T03:19:27.288Z,10.30
2023-03-13T03:22:00.129Z,10.20
2023-03-13T03:24:29.390Z,10.20
2023-03-13T03:27:02.672Z,10.20
2023-03-13T03:29:48.036Z,10.20
2023-03-13T03:32:20.470Z,10.10
2023-03-13T03:35:00.607Z,10.10
2023-03-13T03:37:34.557Z,10.20
2023-03-13T03:40:08.210Z,10.20
2023-03-13T03:42:48.661Z,10.20
2023-03-13T03:45:26.798Z,10.20
2023-03-13T03:48:04.345Z,10.20
2023-03-13T03:50:37.482Z,10.10
2023-03-13T03:53:17.847Z,10.10
2023-03-13T03:55:57.393Z,10.10
2023-03-13T03:58:38.860Z,10.10
2023-03-13T04:01:40.473Z,10.10
2023-03-13T04:04:20.200Z,10.10
2023-03-13T04:06:57.954Z,10.10
2023-03-13T04:09:36.613Z,10.10
2023-03-13T04:12:16.936Z,10.10
2023-03-13T04:15:00.657Z,10.20
2023-03-13T04:17:48.943Z,10.20
2023-03-13T04:20:29.161Z,10.20
2023-03-13T04:23:04.466Z,10.30
2023-03-13T04:25:39.247Z,10.20
2023-03-13T04:28:15.582Z,10.30
2023-03-13T04:30:58.577Z,10.20
2023-03-13T04:33:45.723Z,10.20
2023-03-13T04:36:43.135Z,10.30
2023-03-13T04:39:42.199Z,10.20
2023-03-13T04:42:40.828Z,10.30
2023-03-13T04:45:39.898Z,10.30
2023-03-13T04:48:44.780Z,10.40
2023-03-13T04:51:37.509Z,10.40
2023-03-13T04:54:38.969Z,10.30
2023-03-13T04:57:36.339Z,10.40
2023-03-13T05:00:38.078Z,10.40
2023-03-13T05:03:33.190Z,10.30
2023-03-13T05:06:28.735Z,10.30
2023-03-13T05:09:31.991Z,10.40
2023-03-13T05:12:05.748Z,10.40
2023-03-13T05:14:55.897Z,10.30
2023-03-13T05:17:54.913Z,10.30
2023-03-13T05:20:36.711Z,10.30
2023-03-13T05:23:34.533Z,10.30
2023-03-13T05:26:34.976Z,10.30
2023-03-13T05:29:32.617Z,10.40
2023-03-13T05:32:22.371Z,10.40
2023-03-13T05:35:25.233Z,10.40
2023-03-13T05:38:22.428Z,10.40
2023-03-13T05:41:37.990Z,10.40
2023-03-13T05:44:39.121Z,10.40
2023-03-13T05:47:39.612Z,10.40
2023-03-13T05:50:27.748Z,10.40
2023-03-13T05:53:26.546Z,10.50
2023-03-13T05:56:16.017Z,10.50
2023-03-13T05:59:13.650Z,10.50
2023-03-13T06:02:02.653Z,10.60
2023-03-13T06:04:51.999Z,10.50
2023-03-13T06:07:30.110Z,10.60
2023-03-13T06:10:05.906Z,10.50
2023-03-13T06:12:38.286Z,10.60
2023-03-13T06:15:22.933Z,10.60
2023-03-13T06:18:00.580Z,10.60
2023-03-13T06:20:46.901Z,10.70
2023-03-13T06:23:18.866Z,10.60
2023-03-13T06:25:53.930Z,10.70
2023-03-13T06:28:25.544Z,10.60
2023-03-13T06:31:03.749Z,10.60
2023-03-13T06:33:37.681Z,10.70
2023-03-13T06:36:24.450Z,10.70
2023-03-13T06:39:01.244Z,10.80
2023-03-13T06:41:36.046Z,10.80
2023-03-13T06:44:11.844Z,10.80
2023-03-13T06:46:43.889Z,10.80
2023-03-13T06:49:16.602Z,10.80
2023-03-13T06:51:48.484Z,10.80
2023-03-13T06:54:19.234Z,10.80
2023-03-13T06:56:55.640Z,10.80
2023-03-13T06:59:34.236Z,10.80
2023-03-13T07:02:13.517Z,10.80
2023-03-13T07:04:57.369Z,10.80
2023-03-13T07:07:33.260Z,10.80
2023-03-13T07:10:10.618Z,10.80
2023-03-13T07:12:43.707Z,10.90
2023-03-13T07:15:23.865Z,10.90
2023-03-13T07:18:04.110Z,10.90
2023-03-13T07:20:35.938Z,10.90
2023-03-13T07:23:13.358Z,10.90
2023-03-13T07:25:48.715Z,10.80
2023-03-13T07:28:22.886Z,10.90
2023-03-13T07:31:00.415Z,10.90
2023-03-13T07:33:39.337Z,11.00
2023-03-13T07:36:18.886Z,11.00
2023-03-13T07:39:01.221Z,11.00
2023-03-13T07:41:39.058Z,11.00
2023-03-13T07:44:15.077Z,11.00
2023-03-13T07:46:50.548Z,11.00
2023-03-13T07:49:28.277Z,11.00
2023-03-13T07:52:06.470Z,11.00
2023-03-13T07:54:40.280Z,11.00
2023-03-13T07:57:18.675Z,11.00
2023-03-13T07:59:55.629Z,11.10
2023-03-13T08:02:33.251Z,11.10
2023-03-13T08:05:09.282Z,11.10
2023-03-13T08:07:49.820Z,11.20
2023-03-13T08:10:28.716Z,11.20
2023-03-13T08:13:09.022Z,11.30
2023-03-13T08:15:48.539Z,11.30
2023-03-13T08:18:20.671Z,11.30
2023-03-13T08:20:57.275Z,11.30
2023-03-13T08:23:36.103Z,11.40
2023-03-13T08:26:07.495Z,11.50
2023-03-13T08:28:38.763Z,11.50
2023-03-13T08:31:15.081Z,11.50
2023-03-13T08:33:51.977Z,11.60
2023-03-13T08:36:27.979Z,11.60
2023-03-13T08:39:05.669Z,11.60
2023-03-13T08:41:48.452Z,11.60
2023-03-13T08:44:24.094Z,11.60
2023-03-13T08:46:58.441Z,11.70
2023-03-13T08:49:30.867Z,11.70
2023-03-13T08:52:09.576Z,11.80
2023-03-13T08:54:42.665Z,11.90
2023-03-13T08:57:10.545Z,11.90
2023-03-13T08:59:42.483Z,12.00
2023-03-13T09:02:22.185Z,12.00
2023-03-13T09:04:56.278Z,12.00
2023-03-13T09:07:28.429Z,12.00
2023-03-13T09:09:59.877Z,12.10
2023-03-13T09:12:31.736Z,12.20
2023-03-13T09:15:15.544Z,12.20
2023-03-13T09:17:51.396Z,12.20
2023-03-13T09:20:49.011Z,12.30
2023-03-13T09:23:29.838Z,12.30
2023-03-13T09:26:01.907Z,12.40
2023-03-13T09:28:39.208Z,12.40
2023-03-13T09:31:21.019Z,12.40
2023-03-13T09:33:50.734Z,12.50
2023-03-13T09:36:24.365Z,12.50
2023-03-13T09:39:13.211Z,12.60
2023-03-13T09:41:54.515Z,12.60
2023-03-13T09:44:31.070Z,12.60
2023-03-13T09:47:11.702Z,12.60
2023-03-13T09:49:46.946Z,12.70
2023-03-13T09:52:18.578Z,12.70
2023-03-13T09:55:04.429Z,12.80
2023-03-13T09:57:42.603Z,12.80
2023-03-13T10:00:17.946Z,12.80
2023-03-13T10:02:59.674Z,12.80
2023-03-13T10:05:31.391Z,12.90
2023-03-13T10:08:15.458Z,12.90
2023-03-13T10:11:01.521Z,12.80
2023-03-13T10:13:39.251Z,13.00
2023-03-13T10:16:19.506Z,13.00
2023-03-13T10:18:54.881Z,12.90
2023-03-13T10:21:36.385Z,13.00
2023-03-13T10:24:19.933Z,13.00
2023-03-13T10:26:51.625Z,13.00
2023-03-13T10:29:31.988Z,13.00
2023-03-13T10:32:03.610Z,13.00
2023-03-13T10:34:55.342Z,13.10
2023-03-13T10:37:32.534Z,13.10
2023-03-13T10:40:15.128Z,13.20
2023-03-13T10:42:57.750Z,13.30
2023-03-13T10:45:39.611Z,13.40
2023-03-13T10:48:19.526Z,13.40
2023-03-13T10:50:51.156Z,13.50
2023-03-13T10:53:34.297Z,13.60
2023-03-13T10:56:18.872Z,13.70
2023-03-13T10:58:54.233Z,13.80
2023-03-13T11:01:35.430Z,13.90
2023-03-13T11:04:40.351Z,14.00
2023-03-13T11:07:19.632Z,14.20
2023-03-13T11:10:04.052Z,14.30
2023-03-13T11:12:36.716Z,14.30
2023-03-13T11:15:25.911Z,14.40
2023-03-13T11:18:07.805Z,14.50
2023-03-13T11:20:43.116Z,14.50
2023-03-13T11:23:24.816Z,14.50
2023-03-13T11:26:07.579Z,14.50
2023-03-13T11:28:57.629Z,14.50
2023-03-13T11:31:35.992Z,14.60
2023-03-13T11:34:19.650Z,14.60
2023-03-13T11:37:04.743Z,14.70
2023-03-13T11:39:55.726Z,14.70
2023-03-13T11:42:53.170Z,14.70
2023-03-13T11:45:40.667Z,14.70
2023-03-13T11:48:25.382Z,14.80
2023-03-13T11:51:06.643Z,14.80
2023-03-13T11:53:50.510Z,14.70
2023-03-13T11:56:30.685Z,14.80
2023-03-13T11:59:21.786Z,14.80
2023-03-13T12:01:58.069Z,14.90
2023-03-13T12:04:45.215Z,15.00
2023-03-13T12:07:25.991Z,15.00
2023-03-13T12:10:02.605Z,15.00
2023-03-13T12:12:43.446Z,15.10
2023-03-13T12:15:32.965Z,15.20
2023-03-13T12:18:08.044Z,15.30
2023-03-13T12:20:57.755Z,15.30
2023-03-13T12:23:39.276Z,15.40
2023-03-13T12:26:21.199Z,15.40
2023-03-13T12:29:10.156Z,15.40
2023-03-13T12:31:49.957Z,15.50
2023-03-13T12:34:28.639Z,15.50
2023-03-13T12:37:42.438Z,15.60
2023-03-13T12:40:38.096Z,15.60
2023-03-13T12:43:19.825Z,15.60
2023-03-13T12:46:09.136Z,15.70
2023-03-13T12:48:51.090Z,15.90
2023-03-13T12:51:36.039Z,15.90
2023-03-13T12:54:42.217Z,16.00
2023-03-13T12:57:40.181Z,16.10
2023-03-13T13:00:30.082Z,16.20
2023-03-13T13:03:19.712Z,16.20
2023-03-13T13:06:12.932Z,16.30
2023-03-13T13:08:44.838Z,16.30
2023-03-13T13:11:42.045Z,16.30
2023-03-13T13:14:58.323Z,16.30
2023-03-13T13:17:52.827Z,16.30
2023-03-13T13:20:49.630Z,16.30
2023-03-13T13:23:35.404Z,16.30
2023-03-13T13:26:52.022Z,16.40
2023-03-13T13:29:59.964Z,16.30
2023-03-13T13:32:50.745Z,16.30
2023-03-13T13:36:16.489Z,16.30
2023-03-13T13:38:47.112Z,16.30
2023-03-13T13:41:39.716Z,16.30
2023-03-13T13:44:30.504Z,16.30
2023-03-13T13:47:08.373Z,16.30
2023-03-13T13:49:57.888Z,16.30
2023-03-13T13:52:43.597Z,16.30
2023-03-13T13:55:47.661Z,16.20
2023-03-13T13:58:26.106Z,16.30
2023-03-13T14:01:02.296Z,16.30
2023-03-13T14:03:44.251Z,16.30
2023-03-13T14:06:25.071Z,16.30
2023-03-13T14:09:00.482Z,16.40
2023-03-13T14:11:42.062Z,16.40
2023-03-13T14:14:17.217Z,16.30
2023-03-13T14:17:01.401Z,16.40
2023-03-13T14:19:51.739Z,16.30
2023-03-13T14:22:28.322Z,16.30
2023-03-13T14:25:00.629Z,16.40
2023-03-13T14:27:32.304Z,16.40
2023-03-13T14:30:05.021Z,16.40
2023-03-13T14:32:38.037Z,16.50
2023-03-13T14:35:21.896Z,16.50
2023-03-13T14:38:02.302Z,16.50
2023-03-13T14:40:40.954Z,16.60
2023-03-13T14:43:27.065Z,16.60
2023-03-13T14:46:03.537Z,16.70
2023-03-13T14:48:39.746Z,16.70
2023-03-13T14:51:27.741Z,16.80
2023-03-13T14:54:03.304Z,16.80
2023-03-13T14:56:45.293Z,16.80
2023-03-13T14:59:25.743Z,16.70
2023-03-13T15:02:07.255Z,16.70
2023-03-13T15:04:58.767Z,16.70
2023-03-13T15:07:44.608Z,16.70
2023-03-13T15:10:28.052Z,16.80
2023-03-13T15:13:01.988Z,16.80
2023-03-13T15:15:39.322Z,16.80
2023-03-13T15:18:20.704Z,16.80
2023-03-13T15:21:00.530Z,16.80
2023-03-13T15:23:35.082Z,16.80
2023-03-13T15:26:13.949Z,16.80
2023-03-13T15:28:49.714Z,16.90
2023-03-13T15:31:31.463Z,16.90
2023-03-13T15:34:06.346Z,16.80
2023-03-13T15:36:37.041Z,16.90
2023-03-13T15:39:22.563Z,16.90
2023-03-13T15:42:00.756Z,16.90
2023-03-13T15:44:34.961Z,17.00
2023-03-13T15:47:14.833Z,17.00
2023-03-13T15:49:55.106Z,17.00
2023-03-13T15:52:32.209Z,17.00
2023-03-13T15:55:05.630Z,17.00
2023-03-13T15:57:36.607Z,16.90
2023-03-13T16:02:55.335Z,16.90
2023-03-13T16:05:29.562Z,16.90
2023-03-13T16:08:04.305Z,16.90
2023-03-13T16:10:39.529Z,16.90
2023-03-13T16:13:15.070Z,16.90
2023-03-13T16:15:47.764Z,16.90
2023-03-13T16:18:25.865Z,16.80
2023-03-13T16:21:01.039Z,16.80
2023-03-13T16:23:32.693Z,16.80
2023-03-13T16:26:23.014Z,16.80
2023-03-13T16:28:57.389Z,16.80
2023-03-13T16:31:32.286Z,16.70
2023-03-13T16:34:10.006Z,16.80
2023-03-13T16:36:47.256Z,16.80
2023-03-13T16:39:20.623Z,16.90
2023-03-13T16:41:59.482Z,16.90
2023-03-13T16:44:33.718Z,16.90
2023-03-13T16:47:06.529Z,16.80
2023-03-13T16:49:47.445Z,16.70
2023-03-13T16:52:27.477Z,16.30
2023-03-13T16:54:59.743Z,16.10
2023-03-13T16:57:38.808Z,15.80
2023-03-13T17:00:16.973Z,15.60
2023-03-13T17:02:48.209Z,15.50
2023-03-13T17:05:24.419Z,15.40
2023-03-13T17:07:55.432Z,15.20
2023-03-13T17:10:29.973Z,15.20
2023-03-13T17:13:00.563Z,15.10
2023-03-13T17:15:33.059Z,15.00
2023-03-13T17:18:01.165Z,15.00
2023-03-13T17:20:31.300Z,14.90
2023-03-13T17:23:01.030Z,14.80
2023-03-13T17:25:28.996Z,14.80
2023-03-13T17:27:56.850Z,14.80
2023-03-13T17:30:27.886Z,14.70
2023-03-13T17:32:56.091Z,14.60
2023-03-13T17:35:28.281Z,14.60
2023-03-13T17:38:02.090Z,14.50
2023-03-13T17:40:31.262Z,14.40
2023-03-13T17:42:59.219Z,14.40
2023-03-13T17:45:30.433Z,14.40
2023-03-13T17:48:00.904Z,14.40
2023-03-13T17:50:34.645Z,14.30
2023-03-13T17:53:02.551Z,14.30
2023-03-13T17:55:30.440Z,14.20
2023-03-13T17:57:58.438Z,14.20
2023-03-13T18:00:30.475Z,14.20
2023-03-13T18:03:02.528Z,14.10
2023-03-13T18:05:38.671Z,14.10
2023-03-13T18:08:06.644Z,14.10
2023-03-13T18:10:34.635Z,14.10
2023-03-13T18:13:02.505Z,14.00
2023-03-13T18:15:45.589Z,14.00
2023-03-13T18:18:41.599Z,14.00
2023-03-13T18:21:10.898Z,14.00
2023-03-13T18:23:41.565Z,13.90
2023-03-13T18:26:33.230Z,13.90
2023-03-13T18:29:13.911Z,13.90
2023-03-13T18:31:44.239Z,13.90
2023-03-13T18:34:22.591Z,13.90
2023-03-13T18:37:06.047Z,13.90
2023-03-13T18:39:39.856Z,13.90
2023-03-13T18:42:14.428Z,13.90
2023-03-13T18:44:42.854Z,13.90
2023-03-13T18:47:23.265Z,13.80
2023-03-13T18:49:54.469Z,13.80
2023-03-13T18:52:35.249Z,13.80
2023-03-13T18:55:10.517Z,13.80
2023-03-13T18:57:42.045Z,13.80
2023-03-13T19:04:42.094Z,13.80
2023-03-13T19:07:23.601Z,13.70
2023-03-13T19:09:55.022Z,13.70
2023-03-13T19:12:28.667Z,13.70
2023-03-13T19:15:03.533Z,13.70
2023-03-13T19:17:34.889Z,13.70
2023-03-13T19:20:19.868Z,13.70
2023-03-13T19:22:55.956Z,13.70
2023-03-13T19:25:27.618Z,13.70
2023-03-13T19:28:01.239Z,13.70
2023-03-13T19:30:35.297Z,13.70
2023-03-13T19:33:04.637Z,13.70
2023-03-13T19:35:35.973Z,13.70
2023-03-13T19:38:07.239Z,13.70
2023-03-13T19:40:37.292Z,13.60
2023-03-13T19:43:06.139Z,13.60
2023-03-13T19:45:50.245Z,13.60
2023-03-13T19:48:21.559Z,13.60
2023-03-13T19:50:58.802Z,13.60
2023-03-13T19:53:28.770Z,13.60
2023-03-13T19:56:03.966Z,13.60
2023-03-13T19:58:44.309Z,13.60
2023-03-13T20:01:26.130Z,13.60
2023-03-13T20:04:01.348Z,13.60
2023-03-13T20:06:41.603Z,13.60
2023-03-13T20:09:16.787Z,13.50
2023-03-13T20:11:48.589Z,13.50
2023-03-13T20:14:19.641Z,13.50
2023-03-13T20:16:51.311Z,13.50
2023-03-13T20:19:23.942Z,13.50
2023-03-13T20:22:01.853Z,13.50
2023-03-13T20:24:34.695Z,13.50
2023-03-13T20:27:06.601Z,13.50
2023-03-13T20:29:42.980Z,13.40
2023-03-13T20:32:13.906Z,13.30
2023-03-13T20:34:44.558Z,13.30
2023-03-13T20:37:17.131Z,13.30
2023-03-13T20:39:48.098Z,13.30
2023-03-13T20:42:23.736Z,13.30
2023-03-13T20:44:55.568Z,13.20
2023-03-13T20:47:29.922Z,13.20
2023-03-13T20:50:02.331Z,13.10
2023-03-13T20:52:35.774Z,13.10
2023-03-13T20:55:11.820Z,13.10
2023-03-13T20:57:43.029Z,13.10
2023-03-13T21:00:13.412Z,13.00
2023-03-13T21:02:45.960Z,13.10
2023-03-13T21:05:20.639Z,13.00
2023-03-13T21:08:11.636Z,13.00
2023-03-13T21:10:42.709Z,13.00
2023-03-13T21:13:17.583Z,12.90
2023-03-13T21:15:48.056Z,13.00
2023-03-13T21:18:21.968Z,12.90
2023-03-13T21:20:59.350Z,13.00
2023-03-13T21:23:32.533Z,13.00
2023-03-13T21:26:15.673Z,12.80
2023-03-13T21:28:55.175Z,12.80
2023-03-13T21:31:26.421Z,12.80
2023-03-13T21:34:01.336Z,12.70
2023-03-13T21:36:36.257Z,12.70
2023-03-13T21:39:14.450Z,12.70
2023-03-13T21:41:45.364Z,12.70
2023-03-13T21:44:18.503Z,12.60
2023-03-13T21:46:50.102Z,12.60
2023-03-13T21:49:23.014Z,12.60
2023-03-13T21:52:08.153Z,12.60
2023-03-13T21:54:41.353Z,12.60
2023-03-13T21:57:13.660Z,12.60
2023-03-13T21:59:54.545Z,12.70
2023-03-13T22:02:32.029Z,12.60
2023-03-13T22:05:07.177Z,12.60
2023-03-13T22:07:44.691Z,12.50
2023-03-13T22:10:24.696Z,12.60
2023-03-13T22:13:00.992Z,12.50
2023-03-13T22:15:32.573Z,12.50
2023-03-13T22:18:10.384Z,12.60
2023-03-13T22:20:47.532Z,12.60
2023-03-13T22:23:22.924Z,12.60
2023-03-13T22:26:00.550Z,12.60
2023-03-13T22:28:30.652Z,12.70
2023-03-13T22:31:07.233Z,12.70
2023-03-13T22:33:40.619Z,12.80
2023-03-13T22:36:28.427Z,12.80
2023-03-13T22:39:04.337Z,12.80
2023-03-13T22:41:44.596Z,12.90
2023-03-13T22:44:23.560Z,12.90
2023-03-13T22:47:00.898Z,13.00
2023-03-13T22:49:44.671Z,13.00
2023-03-13T22:52:19.921Z,13.00
2023-03-13T22:54:53.112Z,13.00
2023-03-13T22:57:26.358Z,13.00
2023-03-13T23:00:03.778Z,13.00
2023-03-13T23:02:44.595Z,13.00
2023-03-13T23:05:16.398Z,13.00
2023-03-13T23:07:53.492Z,13.00
2023-03-13T23:10:24.156Z,13.00
2023-03-13T23:13:04.495Z,13.00
2023-03-13T23:16:01.746Z,13.00
2023-03-13T23:18:36.694Z,13.00
2023-03-13T23:21:17.172Z,12.90
2023-03-13T23:23:53.430Z,12.90
2023-03-13T23:26:29.188Z,12.90
2023-03-13T23:29:16.612Z,12.80
2023-03-13T23:31:50.662Z,12.80
2023-03-13T23:34:34.325Z,12.80
2023-03-13T23:37:06.958Z,12.80
2023-03-13T23:39:37.826Z,12.80
2023-03-13T23:42:08.641Z,12.80
2023-03-13T23:44:42.807Z,12.90
2023-03-13T23:47:16.144Z,12.80
2023-03-13T23:49:50.652Z,12.80
2023-03-13T23:52:27.707Z,12.80
2023-03-13T23:54:59.295Z,12.80
2023-03-13T23:57:40.434Z,12.90
